Time;durP1;ratioP1;P1;durP2;ratioP2;P2;SDS_P1;SDS_P2;PMS_P1;PMS_P2;Temp;Humidity;BMP_temperature;BMP_pressure;BME280_temperature;BME280_humidity;BME280_pressure;Samples;Min_cycle;Max_cycle;Signal;HPM_P1;HPM_P2
2022/03/30 00:01:03;;;;;;;14.02;4.78;;;;;;;;;;5045810;28;20117;-79
2022/03/30 00:03:29;;;;;;;10.90;4.90;;;;;;;;;;5041938;28;20043;-79
2022/03/30 00:05:55;;;;;;;14.40;5.10;;;;;;;;;;5039702;28;20409;-79
2022/03/30 00:08:20;;;;;;;14.38;4.70;;;;;;;;;;5042084;28;20132;-79
2022/03/30 00:10:46;;;;;;;15.30;5.10;;;;;;;;;;5031680;28;20052;-80
2022/03/30 00:13:12;;;;;;;13.35;4.97;;;;;;;;;;5029795;28;20382;-79
2022/03/30 00:15:38;;;;;;;11.95;4.28;;;;;;;;;;5030427;28;20036;-80
2022/03/30 00:18:03;;;;;;;17.30;4.65;;;;;;;;;;5028501;28;20028;-80
2022/03/30 00:20:29;;;;;;;11.75;4.60;;;;;;;;;;5040764;28;20044;-80
2022/03/30 00:22:55;;;;;;;14.00;4.68;;;;;;;;;;5047900;28;20086;-80
2022/03/30 00:25:20;;;;;;;14.65;4.68;;;;;;;;;;5063197;28;20041;-79
2022/03/30 00:27:47;;;;;;;9.35;4.22;;;;;;;;;;5032597;28;20036;-80
2022/03/30 00:30:15;;;;;;;9.60;4.45;;;;;;;;;;5044394;28;20037;-79
2022/03/30 00:32:41;;;;;;;12.25;4.28;;;;;;;;;;5042483;28;20050;-80
2022/03/30 00:35:08;;;;;;;11.30;4.00;;;;;;;;;;5030232;28;20473;-79
2022/03/30 00:37:34;;;;;;;9.25;4.43;;;;;;;;;;5031767;28;20090;-80
2022/03/30 00:40:00;;;;;;;16.92;4.60;;;;;;;;;;5022059;28;20040;-79
2022/03/30 00:42:25;;;;;;;13.52;4.85;;;;;;;;;;5041963;28;20039;-79
2022/03/30 00:44:52;;;;;;;14.07;4.43;;;;;;;;;;5031374;28;20128;-79
2022/03/30 00:47:20;;;;;;;13.20;4.10;;;;;;;;;;5023003;28;20032;-80
2022/03/30 00:49:46;;;;;;;12.32;4.00;;;;;;;;;;5029556;28;20059;-79
2022/03/30 00:52:12;;;;;;;17.70;4.10;;;;;;;;;;5043123;28;20048;-79
2022/03/30 00:54:41;;;;;;;12.13;4.10;;;;;;;;;;5025953;28;20099;-79
2022/03/30 00:57:09;;;;;;;10.98;3.90;;;;;;;;;;5027689;28;20447;-79
2022/03/30 00:59:35;;;;;;;14.77;4.63;;;;;;;;;;5005633;28;20043;-79
2022/03/30 01:02:01;;;;;;;13.50;4.30;;;;;;;;;;5009699;28;20033;-80
2022/03/30 01:04:27;;;;;;;12.07;3.78;;;;;;;;;;5011685;28;20070;-79
2022/03/30 01:06:53;;;;;;;10.55;4.13;;;;;;;;;;5020281;28;20502;-79
2022/03/30 01:09:20;;;;;;;9.52;3.55;;;;;;;;;;5022484;28;20068;-79
2022/03/30 01:11:47;;;;;;;10.90;3.55;;;;;;;;;;5023669;28;20044;-79
2022/03/30 01:14:13;;;;;;;11.80;3.65;;;;;;;;;;5014117;28;20269;-79
2022/03/30 01:16:40;;;;;;;10.55;3.78;;;;;;;;;;5019946;28;20045;-79
2022/03/30 01:19:08;;;;;;;9.90;4.22;;;;;;;;;;5035658;28;20030;-79
2022/03/30 01:21:39;;;;;;;10.93;3.75;;;;;;;;;;5053089;28;20060;-79
2022/03/30 01:24:06;;;;;;;12.85;3.75;;;;;;;;;;5039299;28;20393;-79
2022/03/30 01:26:33;;;;;;;9.70;3.85;;;;;;;;;;5028877;28;20543;-79
2022/03/30 01:28:58;;;;;;;11.02;3.75;;;;;;;;;;5018901;28;20040;-79
2022/03/30 01:34:09;;;;;;;10.38;4.13;;;;;;;;;;5032558;28;20063;-79
2022/03/30 01:36:38;;;;;;;9.68;3.42;;;;;;;;;;5011187;28;20040;-79
2022/03/30 01:39:05;;;;;;;9.70;3.97;;;;;;;;;;5010988;28;20047;-79
2022/03/30 01:41:31;;;;;;;9.30;3.35;;;;;;;;;;5028803;28;20048;-79
2022/03/30 01:43:57;;;;;;;14.23;4.10;;;;;;;;;;5029488;28;20569;-79
2022/03/30 01:46:23;;;;;;;11.98;3.72;;;;;;;;;;5040310;28;20033;-79
2022/03/30 01:48:49;;;;;;;11.00;4.40;;;;;;;;;;5033852;28;20079;-79
2022/03/30 01:51:15;;;;;;;13.60;4.10;;;;;;;;;;5041519;28;20033;-79
2022/03/30 01:53:42;;;;;;;9.10;3.22;;;;;;;;;;5036495;28;20037;-79
2022/03/30 01:56:07;;;;;;;7.85;4.35;;;;;;;;;;5034264;28;20037;-80
2022/03/30 01:58:33;;;;;;;9.98;4.30;;;;;;;;;;5015785;28;20448;-80
2022/03/30 02:01:00;;;;;;;14.05;4.32;;;;;;;;;;5009139;28;20041;-79
2022/03/30 02:03:27;;;;;;;11.15;4.13;;;;;;;;;;5032961;28;20040;-79
2022/03/30 02:05:54;;;;;;;11.95;3.80;;;;;;;;;;5029531;28;20110;-78
2022/03/30 02:08:20;;;;;;;12.57;4.50;;;;;;;;;;5014074;28;20035;-78
2022/03/30 02:10:46;;;;;;;9.43;3.63;;;;;;;;;;5022715;28;20410;-78
2022/03/30 02:13:12;;;;;;;8.50;3.78;;;;;;;;;;5024348;28;20053;-78
2022/03/30 02:15:38;;;;;;;11.40;3.72;;;;;;;;;;5006573;28;20387;-79
2022/03/30 02:18:07;;;;;;;11.20;3.85;;;;;;;;;;5006873;28;20045;-78
2022/03/30 02:20:33;;;;;;;10.57;3.90;;;;;;;;;;5024610;28;20508;-78
2022/03/30 02:22:59;;;;;;;11.70;3.75;;;;;;;;;;5022044;28;20254;-79
2022/03/30 02:25:26;;;;;;;13.52;4.88;;;;;;;;;;5035459;28;20044;-80
2022/03/30 02:27:52;;;;;;;15.48;3.42;;;;;;;;;;5020136;28;20033;-78
2022/03/30 02:30:17;;;;;;;12.05;3.58;;;;;;;;;;4998397;28;20076;-78
2022/03/30 02:32:44;;;;;;;11.77;4.13;;;;;;;;;;5021665;28;20041;-79
2022/03/30 02:35:10;;;;;;;11.95;4.13;;;;;;;;;;5030778;28;20037;-78
2022/03/30 02:37:36;;;;;;;6.65;3.47;;;;;;;;;;5015630;28;20552;-78
2022/03/30 02:40:02;;;;;;;10.60;3.55;;;;;;;;;;5007090;28;20041;-78
2022/03/30 02:42:27;;;;;;;14.68;4.75;;;;;;;;;;5010454;28;20402;-79
2022/03/30 02:44:53;;;;;;;13.05;4.63;;;;;;;;;;5034453;28;20478;-78
2022/03/30 02:48:17;;;;;;;11.40;3.90;;;;;;;;;;5013288;28;20032;-78
2022/03/30 02:50:05;;;;;;;9.52;3.17;;;;;;;;;;5037311;28;20087;-79
2022/03/30 02:52:30;;;;;;;11.18;3.85;;;;;;;;;;5011398;28;20045;-78
2022/03/30 02:54:56;;;;;;;10.27;4.13;;;;;;;;;;5024074;28;20565;-78
2022/03/30 02:57:22;;;;;;;10.48;4.28;;;;;;;;;;5043589;28;20041;-78
2022/03/30 02:59:47;;;;;;;10.68;4.05;;;;;;;;;;5025624;28;20037;-78
2022/03/30 03:02:13;;;;;;;9.98;3.90;;;;;;;;;;5006047;28;20045;-77
2022/03/30 03:04:39;;;;;;;10.95;3.75;;;;;;;;;;5021468;28;20033;-78
2022/03/30 03:07:05;;;;;;;10.77;3.90;;;;;;;;;;5024307;28;20071;-77
2022/03/30 03:09:31;;;;;;;10.00;3.88;;;;;;;;;;5009957;28;20051;-77
2022/03/30 03:11:56;;;;;;;8.30;3.78;;;;;;;;;;5017627;28;20147;-78
2022/03/30 03:14:22;;;;;;;9.30;4.07;;;;;;;;;;5015004;28;20033;-77
2022/03/30 03:16:49;;;;;;;18.05;4.72;;;;;;;;;;5023660;28;20039;-78
2022/03/30 03:19:14;;;;;;;14.20;5.20;;;;;;;;;;5008426;28;20773;-78
2022/03/30 03:21:40;;;;;;;20.80;6.03;;;;;;;;;;5024267;28;20064;-77
2022/03/30 03:24:06;;;;;;;13.88;4.90;;;;;;;;;;5006352;28;20063;-78
2022/03/30 03:26:32;;;;;;;13.13;4.63;;;;;;;;;;5022302;28;20059;-78
2022/03/30 03:28:58;;;;;;;14.50;4.75;;;;;;;;;;5035365;28;20037;-78
2022/03/30 03:31:24;;;;;;;12.13;4.65;;;;;;;;;;5028318;28;20044;-77
2022/03/30 03:33:49;;;;;;;13.68;4.50;;;;;;;;;;5017565;28;20170;-78
2022/03/30 03:36:15;;;;;;;11.25;3.92;;;;;;;;;;5037064;28;20122;-78
2022/03/30 03:38:41;;;;;;;8.23;3.90;;;;;;;;;;5014290;28;20037;-78
2022/03/30 03:41:07;;;;;;;11.18;3.70;;;;;;;;;;5010763;28;20053;-77
2022/03/30 03:43:32;;;;;;;10.63;3.22;;;;;;;;;;5018403;28;20116;-78
2022/03/30 03:45:58;;;;;;;14.30;3.63;;;;;;;;;;5015758;28;20507;-78
2022/03/30 03:48:24;;;;;;;11.63;3.67;;;;;;;;;;5022039;28;20466;-77
2022/03/30 03:50:50;;;;;;;14.38;3.35;;;;;;;;;;5032927;28;20071;-81
2022/03/30 03:53:16;;;;;;;12.45;3.30;;;;;;;;;;5017758;28;20049;-82
2022/03/30 03:55:41;;;;;;;12.30;3.45;;;;;;;;;;5028665;28;20192;-82
2022/03/30 03:58:09;;;;;;;11.63;3.25;;;;;;;;;;5019393;28;20117;-82
2022/03/30 04:00:35;;;;;;;9.18;3.30;;;;;;;;;;5040157;28;20033;-82
2022/03/30 04:03:01;;;;;;;7.65;2.88;;;;;;;;;;5017738;28;20504;-82
2022/03/30 04:05:27;;;;;;;7.50;3.30;;;;;;;;;;5010817;28;20045;-82
2022/03/30 04:07:52;;;;;;;13.40;4.47;;;;;;;;;;5008468;28;20052;-82
2022/03/30 04:10:18;;;;;;;8.88;3.38;;;;;;;;;;5006048;28;20094;-82
2022/03/30 04:12:44;;;;;;;10.13;3.22;;;;;;;;;;5023928;28;20502;-82
2022/03/30 04:15:10;;;;;;;16.25;3.92;;;;;;;;;;5008634;28;20033;-81
2022/03/30 04:17:42;;;;;;;9.90;3.15;;;;;;;;;;5015484;28;20429;-82
2022/03/30 04:20:08;;;;;;;10.20;3.67;;;;;;;;;;5043095;28;20028;-82
2022/03/30 04:22:34;;;;;;;8.70;3.05;;;;;;;;;;5018640;28;20056;-82
2022/03/30 04:25:00;;;;;;;11.73;3.55;;;;;;;;;;5028000;28;20101;-82
2022/03/30 04:27:25;;;;;;;13.45;4.45;;;;;;;;;;5039867;28;20041;-82
2022/03/30 04:29:51;;;;;;;13.48;3.75;;;;;;;;;;5022849;28;20114;-82
2022/03/30 04:32:17;;;;;;;14.80;3.80;;;;;;;;;;5027162;28;20036;-82
2022/03/30 04:34:43;;;;;;;17.35;3.95;;;;;;;;;;5022418;28;20123;-81
2022/03/30 04:37:08;;;;;;;11.70;3.65;;;;;;;;;;5031128;28;20468;-81
2022/03/30 04:39:34;;;;;;;13.30;4.60;;;;;;;;;;5033105;28;20032;-82
2022/03/30 04:42:00;;;;;;;17.08;4.72;;;;;;;;;;5013161;28;20069;-81
2022/03/30 04:44:27;;;;;;;12.50;4.07;;;;;;;;;;5044383;28;20047;-81
2022/03/30 04:46:54;;;;;;;14.18;3.95;;;;;;;;;;5020903;28;20037;-79
2022/03/30 04:49:19;;;;;;;12.05;4.20;;;;;;;;;;5059658;28;20414;-80
2022/03/30 04:51:45;;;;;;;10.25;4.38;;;;;;;;;;5035900;28;20051;-79
2022/03/30 04:54:11;;;;;;;14.15;4.90;;;;;;;;;;5024729;28;20044;-80
2022/03/30 04:56:36;;;;;;;17.08;4.65;;;;;;;;;;5022333;28;20040;-79
2022/03/30 04:59:02;;;;;;;10.93;4.78;;;;;;;;;;5049173;28;20056;-79
2022/03/30 05:01:28;;;;;;;24.70;8.02;;;;;;;;;;5038954;28;20041;-79
2022/03/30 05:03:54;;;;;;;28.15;13.20;;;;;;;;;;5049253;28;20501;-79
2022/03/30 05:06:19;;;;;;;24.35;13.05;;;;;;;;;;5053323;28;20113;-79
2022/03/30 05:08:46;;;;;;;32.80;12.85;;;;;;;;;;5046980;28;20037;-79
2022/03/30 05:11:12;;;;;;;22.10;10.48;;;;;;;;;;5023455;28;20135;-79
2022/03/30 05:13:38;;;;;;;29.95;13.45;;;;;;;;;;5041463;28;20040;-79
2022/03/30 05:16:04;;;;;;;23.02;11.68;;;;;;;;;;5016385;28;20041;-79
2022/03/30 05:18:29;;;;;;;27.98;13.60;;;;;;;;;;5029389;28;20041;-79
2022/03/30 05:20:55;;;;;;;30.25;14.63;;;;;;;;;;5029519;28;20086;-79
2022/03/30 05:23:21;;;;;;;33.67;17.48;;;;;;;;;;5025836;28;20219;-80
2022/03/30 05:25:46;;;;;;;32.15;16.50;;;;;;;;;;5024674;28;20586;-79
2022/03/30 05:28:12;;;;;;;28.63;15.38;;;;;;;;;;5041546;28;20041;-79
2022/03/30 05:30:38;;;;;;;33.15;17.58;;;;;;;;;;5042040;28;20041;-79
2022/03/30 05:33:04;;;;;;;35.42;17.02;;;;;;;;;;5021410;28;20120;-79
2022/03/30 05:35:29;;;;;;;31.05;14.77;;;;;;;;;;5025674;28;20045;-79
2022/03/30 05:37:55;;;;;;;26.75;11.63;;;;;;;;;;5019094;28;20522;-79
2022/03/30 05:40:21;;;;;;;25.65;11.07;;;;;;;;;;5043016;28;20098;-79
2022/03/30 05:42:47;;;;;;;21.30;10.98;;;;;;;;;;5017071;28;20371;-79
2022/03/30 05:45:13;;;;;;;17.50;7.45;;;;;;;;;;5020162;28;20092;-79
2022/03/30 05:47:38;;;;;;;16.88;7.50;;;;;;;;;;5038242;28;20036;-79
2022/03/30 05:50:07;;;;;;;27.40;7.30;;;;;;;;;;5018806;28;20050;-79
2022/03/30 05:52:32;;;;;;;23.73;6.00;;;;;;;;;;5022353;28;20045;-79
2022/03/30 05:54:58;;;;;;;21.48;6.55;;;;;;;;;;5053661;28;20064;-80
2022/03/30 05:57:24;;;;;;;16.63;4.32;;;;;;;;;;5026489;28;20045;-79
2022/03/30 05:59:51;;;;;;;22.70;5.43;;;;;;;;;;5002510;28;20041;-79
2022/03/30 06:02:17;;;;;;;20.00;4.78;;;;;;;;;;5023090;28;20037;-81
2022/03/30 06:04:45;;;;;;;15.40;4.30;;;;;;;;;;5017661;28;20212;-79
2022/03/30 06:07:11;;;;;;;21.92;4.80;;;;;;;;;;5033812;28;20502;-79
2022/03/30 06:09:37;;;;;;;19.17;5.03;;;;;;;;;;5028935;28;20048;-79
2022/03/30 06:12:06;;;;;;;14.68;5.43;;;;;;;;;;5022937;28;20498;-79
2022/03/30 06:14:32;;;;;;;17.83;5.07;;;;;;;;;;5040729;28;20067;-79
2022/03/30 06:16:58;;;;;;;20.70;4.97;;;;;;;;;;5023191;28;20521;-79
2022/03/30 06:19:24;;;;;;;14.35;4.20;;;;;;;;;;5046390;28;20581;-79
2022/03/30 06:21:50;;;;;;;11.93;4.80;;;;;;;;;;5045875;28;20401;-79
2022/03/30 06:24:16;;;;;;;17.52;4.47;;;;;;;;;;5046266;28;20051;-79
2022/03/30 06:26:42;;;;;;;15.20;4.82;;;;;;;;;;5044494;28;20041;-80
2022/03/30 06:29:09;;;;;;;16.42;4.43;;;;;;;;;;5039495;28;20574;-79
2022/03/30 06:31:35;;;;;;;16.02;5.57;;;;;;;;;;5022236;28;20791;-79
2022/03/30 06:34:02;;;;;;;15.25;5.28;;;;;;;;;;5028337;28;20433;-80
2022/03/30 06:36:29;;;;;;;18.60;4.30;;;;;;;;;;5030077;28;20041;-80
2022/03/30 06:38:55;;;;;;;12.90;4.13;;;;;;;;;;5009924;28;20091;-79
2022/03/30 06:41:22;;;;;;;16.05;4.88;;;;;;;;;;5010397;28;20135;-79
2022/03/30 06:43:47;;;;;;;14.68;4.45;;;;;;;;;;5026451;28;20162;-79
2022/03/30 06:46:14;;;;;;;14.02;4.60;;;;;;;;;;5008541;28;20041;-79
2022/03/30 06:48:40;;;;;;;17.60;5.05;;;;;;;;;;5042688;28;20045;-79
2022/03/30 06:51:07;;;;;;;17.33;5.03;;;;;;;;;;5007088;28;20403;-80
2022/03/30 06:53:33;;;;;;;15.10;3.97;;;;;;;;;;5018208;28;20049;-79
2022/03/30 06:55:58;;;;;;;17.58;4.03;;;;;;;;;;5018561;28;20049;-79
2022/03/30 06:58:24;;;;;;;16.38;4.00;;;;;;;;;;5023645;28;20045;-79
2022/03/30 07:00:51;;;;;;;15.52;4.07;;;;;;;;;;5005184;28;20390;-80
2022/03/30 07:03:16;;;;;;;10.57;4.75;;;;;;;;;;5037316;28;20090;-79
2022/03/30 07:05:42;;;;;;;13.52;3.88;;;;;;;;;;5029242;28;20033;-79
2022/03/30 07:10:52;;;;;;;11.13;3.10;;;;;;;;;;5025815;28;20052;-79
2022/03/30 07:13:19;;;;;;;8.27;3.03;;;;;;;;;;5007103;28;20037;-82
2022/03/30 07:15:45;;;;;;;9.18;3.05;;;;;;;;;;5017195;28;20055;-83
2022/03/30 07:18:13;;;;;;;11.00;3.45;;;;;;;;;;5038555;28;20040;-83
2022/03/30 07:20:39;;;;;;;9.65;3.28;;;;;;;;;;5026679;28;20055;-83
2022/03/30 07:23:05;;;;;;;15.65;3.22;;;;;;;;;;5045624;28;20033;-83
2022/03/30 07:25:31;;;;;;;13.63;3.22;;;;;;;;;;5042138;28;20490;-84
2022/03/30 07:28:03;;;;;;;11.30;3.53;;;;;;;;;;5048802;28;20037;-83
2022/03/30 07:30:29;;;;;;;13.25;3.50;;;;;;;;;;5035470;28;20167;-83
2022/03/30 07:32:56;;;;;;;12.82;3.03;;;;;;;;;;5030602;28;20044;-83
2022/03/30 07:35:24;;;;;;;12.55;3.38;;;;;;;;;;5033634;28;20033;-84
2022/03/30 07:37:50;;;;;;;15.25;2.83;;;;;;;;;;5035450;28;20040;-84
2022/03/30 07:40:18;;;;;;;10.00;2.67;;;;;;;;;;5025737;28;20167;-84
2022/03/30 07:42:45;;;;;;;11.80;3.75;;;;;;;;;;5027355;28;20066;-83
2022/03/30 07:45:11;;;;;;;8.52;2.50;;;;;;;;;;5025787;28;20060;-82
2022/03/30 07:47:37;;;;;;;6.95;2.80;;;;;;;;;;5042615;28;20332;-83
2022/03/30 07:50:04;;;;;;;11.77;2.90;;;;;;;;;;5056574;28;20851;-83
2022/03/30 07:52:29;;;;;;;11.45;3.05;;;;;;;;;;5018713;28;20449;-83
2022/03/30 07:54:55;;;;;;;11.35;2.45;;;;;;;;;;5036560;28;20048;-82
2022/03/30 07:57:26;;;;;;;14.35;3.35;;;;;;;;;;5023206;28;20068;-82
2022/03/30 07:59:56;;;;;;;12.15;3.50;;;;;;;;;;5016926;28;20573;-82
2022/03/30 08:02:22;;;;;;;10.57;2.80;;;;;;;;;;5027761;28;20069;-84
2022/03/30 08:04:48;;;;;;;8.57;2.25;;;;;;;;;;5020695;28;20448;-82
2022/03/30 08:07:14;;;;;;;11.15;3.72;;;;;;;;;;5046895;28;20101;-82
2022/03/30 08:09:40;;;;;;;8.77;2.50;;;;;;;;;;5020132;28;20393;-82
2022/03/30 08:12:07;;;;;;;9.50;2.22;;;;;;;;;;5022229;28;20044;-83
2022/03/30 08:14:32;;;;;;;8.57;2.30;;;;;;;;;;5033094;28;20497;-83
2022/03/30 08:16:58;;;;;;;6.85;2.20;;;;;;;;;;5027009;28;20052;-81
2022/03/30 08:19:24;;;;;;;7.80;2.03;;;;;;;;;;5022807;28;20039;-81
2022/03/30 08:24:35;;;;;;;9.82;1.92;;;;;;;;;;5028998;28;20091;-81
2022/03/30 08:27:00;;;;;;;9.48;2.30;;;;;;;;;;5013342;28;20456;-82
2022/03/30 08:29:26;;;;;;;7.25;2.20;;;;;;;;;;5034792;28;20067;-82
2022/03/30 08:31:52;;;;;;;7.00;1.80;;;;;;;;;;5026585;28;20044;-82
2022/03/30 08:34:19;;;;;;;6.60;1.90;;;;;;;;;;5020587;28;20040;-83
2022/03/30 08:36:45;;;;;;;9.55;2.20;;;;;;;;;;5046281;28;20044;-83
2022/03/30 08:39:11;;;;;;;8.82;2.38;;;;;;;;;;5047226;28;20123;-83
2022/03/30 08:41:43;;;;;;;6.05;2.38;;;;;;;;;;5048965;28;20041;-83
2022/03/30 08:44:10;;;;;;;10.50;2.22;;;;;;;;;;5024640;28;20032;-82
2022/03/30 08:46:38;;;;;;;8.25;1.60;;;;;;;;;;5029606;28;20044;-83
2022/03/30 08:49:04;;;;;;;8.13;2.40;;;;;;;;;;5045785;28;20516;-83
2022/03/30 08:51:31;;;;;;;6.93;2.15;;;;;;;;;;5034484;28;20028;-82
2022/03/30 08:53:56;;;;;;;7.18;2.03;;;;;;;;;;5020986;28;20496;-82
2022/03/30 08:56:24;;;;;;;9.32;1.90;;;;;;;;;;5034084;28;20102;-83
2022/03/30 08:58:54;;;;;;;7.47;1.65;;;;;;;;;;5040060;28;20101;-83
2022/03/30 09:01:23;;;;;;;8.98;1.88;;;;;;;;;;5042817;28;20037;-82
2022/03/30 09:03:56;;;;;;;13.63;2.40;;;;;;;;;;5027684;28;20048;-83
2022/03/30 09:06:44;;;;;;;14.85;2.97;;;;;;;;;;5022636;28;20099;-84
2022/03/30 09:09:11;;;;;;;7.43;2.13;;;;;;;;;;5035461;28;20036;-83
2022/03/30 09:11:56;;;;;;;9.35;2.20;;;;;;;;;;5028542;28;20055;-82
2022/03/30 09:14:25;;;;;;;12.98;2.50;;;;;;;;;;5032629;28;20050;-83
2022/03/30 09:16:55;;;;;;;10.23;2.40;;;;;;;;;;5027251;28;20063;-81
2022/03/30 09:19:21;;;;;;;10.40;2.13;;;;;;;;;;5041585;28;20079;-83
2022/03/30 09:21:58;;;;;;;7.93;2.28;;;;;;;;;;5028470;28;20568;-84
2022/03/30 09:24:26;;;;;;;10.45;2.65;;;;;;;;;;5028429;28;20409;-82
2022/03/30 09:26:53;;;;;;;7.82;2.30;;;;;;;;;;5029286;28;20055;-82
2022/03/30 09:29:24;;;;;;;7.72;2.03;;;;;;;;;;5039974;28;20047;-83
2022/03/30 09:31:51;;;;;;;11.05;1.85;;;;;;;;;;5024666;28;20071;-83
2022/03/30 09:34:17;;;;;;;8.23;2.08;;;;;;;;;;5044159;28;20064;-82
2022/03/30 09:36:44;;;;;;;8.82;2.25;;;;;;;;;;5043082;28;20063;-82
2022/03/30 09:39:28;;;;;;;9.63;1.67;;;;;;;;;;5013060;28;20077;-83
2022/03/30 09:41:56;;;;;;;6.63;1.95;;;;;;;;;;5022725;28;20163;-83
2022/03/30 09:44:22;;;;;;;12.85;2.58;;;;;;;;;;5016914;28;20070;-82
2022/03/30 09:47:06;;;;;;;6.90;2.03;;;;;;;;;;5031256;28;20037;-82
2022/03/30 09:49:46;;;;;;;8.75;1.88;;;;;;;;;;5050453;28;20497;-82
2022/03/30 09:52:24;;;;;;;8.43;1.98;;;;;;;;;;5033856;28;20037;-82
2022/03/30 09:54:53;;;;;;;5.05;1.52;;;;;;;;;;5021241;28;20405;-83
2022/03/30 09:57:21;;;;;;;5.80;1.40;;;;;;;;;;5014064;28;20504;-82
2022/03/30 09:59:59;;;;;;;4.80;1.70;;;;;;;;;;5010831;28;20059;-82
2022/03/30 10:02:26;;;;;;;6.05;1.90;;;;;;;;;;5022990;28;20037;-82
2022/03/30 10:04:52;;;;;;;7.93;2.35;;;;;;;;;;5029004;28;20059;-81
2022/03/30 10:07:20;;;;;;;6.05;1.83;;;;;;;;;;5026900;28;20037;-82
2022/03/30 10:09:47;;;;;;;6.15;1.85;;;;;;;;;;5011038;28;20037;-82
2022/03/30 10:12:16;;;;;;;8.10;1.80;;;;;;;;;;5029800;28;20484;-82
2022/03/30 10:14:42;;;;;;;7.03;1.65;;;;;;;;;;5046439;28;20041;-82
2022/03/30 10:17:08;;;;;;;6.40;1.38;;;;;;;;;;5065400;28;20101;-82
2022/03/30 10:19:34;;;;;;;8.23;1.73;;;;;;;;;;5026752;28;20498;-81
2022/03/30 10:22:10;;;;;;;6.40;1.50;;;;;;;;;;5035850;28;20048;-82
2022/03/30 10:24:47;;;;;;;7.22;1.83;;;;;;;;;;5035707;28;20474;-82
2022/03/30 10:27:29;;;;;;;5.85;1.30;;;;;;;;;;5030417;28;20044;-82
2022/03/30 10:29:59;;;;;;;10.40;1.58;;;;;;;;;;5037521;28;20033;-82
2022/03/30 10:32:27;;;;;;;10.65;1.95;;;;;;;;;;5044789;28;20063;-82
2022/03/30 10:35:06;;;;;;;4.63;1.55;;;;;;;;;;5032542;28;20033;-82
2022/03/30 10:37:38;;;;;;;4.70;1.73;;;;;;;;;;5049267;28;20033;-82
2022/03/30 10:40:03;;;;;;;6.15;1.83;;;;;;;;;;5032481;28;20044;-82
2022/03/30 10:42:47;;;;;;;5.82;1.83;;;;;;;;;;5050350;28;20606;-82
2022/03/30 10:45:24;;;;;;;5.78;1.80;;;;;;;;;;5068971;28;20044;-83
2022/03/30 10:48:13;;;;;;;3.92;2.00;;;;;;;;;;5041670;28;20045;-82
2022/03/30 10:50:50;;;;;;;7.35;1.52;;;;;;;;;;5025271;28;20056;-81
2022/03/30 10:53:31;;;;;;;4.88;1.50;;;;;;;;;;5029690;28;20044;-81
2022/03/30 10:56:09;;;;;;;6.25;1.30;;;;;;;;;;5067207;28;20404;-81
2022/03/30 10:58:38;;;;;;;7.70;2.20;;;;;;;;;;5038947;28;20275;-82
2022/03/30 11:01:14;;;;;;;6.10;1.70;;;;;;;;;;5034232;28;20094;-82
2022/03/30 11:04:00;;;;;;;5.03;1.65;;;;;;;;;;5019306;28;20045;-82
2022/03/30 11:06:27;;;;;;;4.63;1.47;;;;;;;;;;5043344;28;20044;-82
2022/03/30 11:09:01;;;;;;;7.32;1.80;;;;;;;;;;5033625;28;20675;-81
2022/03/30 11:11:35;;;;;;;7.90;1.50;;;;;;;;;;5048046;28;20034;-81
2022/03/30 11:14:27;;;;;;;3.25;1.50;;;;;;;;;;5016886;28;20498;-81
2022/03/30 11:17:10;;;;;;;5.25;1.80;;;;;;;;;;5018668;28;20040;-81
2022/03/30 11:19:48;;;;;;;3.78;1.50;;;;;;;;;;5039528;28;20839;-81
2022/03/30 11:22:17;;;;;;;5.20;1.42;;;;;;;;;;5066515;28;20052;-81
2022/03/30 11:24:45;;;;;;;6.40;1.58;;;;;;;;;;5033555;28;20035;-82
2022/03/30 11:27:10;;;;;;;7.40;1.77;;;;;;;;;;5029688;28;20033;-82
2022/03/30 11:29:48;;;;;;;4.38;1.50;;;;;;;;;;5050984;28;20627;-81
2022/03/30 11:32:23;;;;;;;5.15;1.63;;;;;;;;;;5063879;28;20041;-82
2022/03/30 11:34:54;;;;;;;5.63;1.30;;;;;;;;;;5049039;28;20056;-81
2022/03/30 11:37:26;;;;;;;7.93;1.65;;;;;;;;;;5044566;28;20048;-81
2022/03/30 11:40:04;;;;;;;4.78;1.40;;;;;;;;;;5044016;28;20055;-81
2022/03/30 11:42:29;;;;;;;9.82;1.63;;;;;;;;;;5044533;28;20046;-81
2022/03/30 11:45:14;;;;;;;7.25;1.98;;;;;;;;;;5059041;28;20604;-81
2022/03/30 11:47:46;;;;;;;8.15;2.55;;;;;;;;;;5030186;28;20375;-80
2022/03/30 11:50:13;;;;;;;7.70;1.70;;;;;;;;;;5023684;28;20110;-81
2022/03/30 11:52:39;;;;;;;6.47;2.17;;;;;;;;;;5028866;28;20572;-80
2022/03/30 11:55:07;;;;;;;6.57;2.15;;;;;;;;;;5026494;28;20032;-80
2022/03/30 11:57:41;;;;;;;6.45;2.13;;;;;;;;;;5052719;28;20044;-80
2022/03/30 12:00:11;;;;;;;5.70;1.80;;;;;;;;;;5039840;28;20090;-80
2022/03/30 12:02:38;;;;;;;4.35;1.83;;;;;;;;;;5032465;28;20485;-80
2022/03/30 12:05:04;;;;;;;10.35;2.58;;;;;;;;;;5030030;28;20106;-80
2022/03/30 12:07:34;;;;;;;8.10;2.10;;;;;;;;;;5034303;28;20060;-81
2022/03/30 12:10:00;;;;;;;8.95;2.38;;;;;;;;;;5034746;28;20047;-81
2022/03/30 12:12:26;;;;;;;9.85;2.35;;;;;;;;;;5035771;28;20517;-82
2022/03/30 12:14:59;;;;;;;6.57;1.80;;;;;;;;;;5034083;28;20110;-82
2022/03/30 12:17:28;;;;;;;5.97;1.95;;;;;;;;;;5018068;28;20628;-82
2022/03/30 12:19:54;;;;;;;5.90;2.00;;;;;;;;;;5027888;28;20185;-82
2022/03/30 12:22:21;;;;;;;5.25;1.90;;;;;;;;;;5010452;28;20408;-82
2022/03/30 12:24:47;;;;;;;5.78;2.15;;;;;;;;;;5007385;28;20374;-81
2022/03/30 12:27:13;;;;;;;3.60;1.95;;;;;;;;;;5000131;28;20067;-82
2022/03/30 12:29:39;;;;;;;5.22;1.98;;;;;;;;;;5021107;28;20049;-82
2022/03/30 12:32:06;;;;;;;5.45;2.33;;;;;;;;;;5023365;28;20037;-83
2022/03/30 12:34:36;;;;;;;8.38;2.20;;;;;;;;;;5015413;28;20389;-82
2022/03/30 12:37:05;;;;;;;7.43;1.88;;;;;;;;;;5019505;28;20037;-83
2022/03/30 12:39:41;;;;;;;6.53;2.05;;;;;;;;;;5020073;28;20530;-83
2022/03/30 12:42:12;;;;;;;;;;;;;;;;;;5037607;28;20132;-83
2022/03/30 12:44:40;;;;;;;5.40;2.17;;;;;;;;;;5021240;28;19926;-82
2022/03/30 12:47:30;;;;;;;5.75;2.13;;;;;;;;;;5033474;28;20037;-82
2022/03/30 12:49:59;;;;;;;5.30;1.90;;;;;;;;;;5046819;28;20045;-82
2022/03/30 12:52:32;;;;;;;6.28;2.10;;;;;;;;;;5023290;28;20047;-82
2022/03/30 12:55:11;;;;;;;6.85;2.40;;;;;;;;;;5040164;28;20261;-82
2022/03/30 12:57:50;;;;;;;6.97;1.70;;;;;;;;;;5054093;28;20048;-82
2022/03/30 13:00:21;;;;;;;6.60;2.10;;;;;;;;;;5037959;28;20056;-83
2022/03/30 13:02:47;;;;;;;4.15;1.75;;;;;;;;;;5025158;28;20036;-84
2022/03/30 13:05:24;;;;;;;8.95;1.90;;;;;;;;;;5022380;28;20040;-83
2022/03/30 13:07:51;;;;;;;8.40;2.22;;;;;;;;;;5033650;28;20033;-83
2022/03/30 13:10:19;;;;;;;5.43;1.90;;;;;;;;;;5019491;28;20045;-82
2022/03/30 13:12:55;;;;;;;4.35;1.70;;;;;;;;;;5025045;28;20040;-83
2022/03/30 13:15:22;;;;;;;;;;;;;;;;;;5018661;28;20052;-83
2022/03/30 13:18:05;;;;;;;6.68;2.10;;;;;;;;;;5020301;28;20466;-82
2022/03/30 13:20:36;;;;;;;2.65;1.60;;;;;;;;;;5021292;28;20075;-83
2022/03/30 13:23:08;;;;;;;5.53;2.22;;;;;;;;;;5022534;28;20045;-83
2022/03/30 13:25:42;;;;;;;6.07;1.83;;;;;;;;;;5027188;28;20034;-83
2022/03/30 13:28:08;;;;;;;4.60;1.52;;;;;;;;;;5046890;28;20101;-83
2022/03/30 13:30:35;;;;;;;3.97;2.13;;;;;;;;;;5041225;28;20032;-82
2022/03/30 13:33:01;;;;;;;7.50;1.77;;;;;;;;;;5043323;28;20036;-82
2022/03/30 13:35:28;;;;;;;5.43;2.10;;;;;;;;;;5023535;28;20110;-83
2022/03/30 13:37:54;;;;;;;5.28;1.80;;;;;;;;;;5039691;28;20452;-84
2022/03/30 13:40:21;;;;;;;3.78;1.70;;;;;;;;;;5060162;28;20072;-82
2022/03/30 13:42:47;;;;;;;3.72;1.65;;;;;;;;;;5025290;28;20117;-82
2022/03/30 13:45:14;;;;;;;5.68;2.30;;;;;;;;;;5018713;28;20045;-82
2022/03/30 13:47:43;;;;;;;5.40;1.85;;;;;;;;;;5040457;28;20040;-82
2022/03/30 13:50:11;;;;;;;4.07;1.60;;;;;;;;;;5045789;28;20040;-82
2022/03/30 13:52:37;;;;;;;7.82;2.30;;;;;;;;;;5048957;28;20048;-84
2022/03/30 13:55:04;;;;;;;11.00;2.70;;;;;;;;;;5027102;28;20033;-84
2022/03/30 13:57:30;;;;;;;8.45;2.15;;;;;;;;;;5032328;28;20056;-83
2022/03/30 13:59:55;;;;;;;8.57;1.95;;;;;;;;;;5050464;28;20041;-83
2022/03/30 14:02:21;;;;;;;7.25;2.17;;;;;;;;;;5021923;28;20041;-83
2022/03/30 14:04:47;;;;;;;7.22;1.98;;;;;;;;;;5023004;28;20037;-84
2022/03/30 14:07:13;;;;;;;4.15;1.88;;;;;;;;;;5034816;28;20050;-83
2022/03/30 14:09:41;;;;;;;6.05;2.22;;;;;;;;;;5027483;28;20043;-87
2022/03/30 14:12:06;;;;;;;6.93;2.00;;;;;;;;;;5031847;28;20167;-82
2022/03/30 14:14:34;;;;;;;6.60;2.58;;;;;;;;;;5024150;28;20060;-82
2022/03/30 14:17:02;;;;;;;5.53;2.10;;;;;;;;;;5014217;28;20029;-82
2022/03/30 14:19:28;;;;;;;5.40;2.22;;;;;;;;;;5024865;28;20447;-82
2022/03/30 14:21:54;;;;;;;8.23;2.35;;;;;;;;;;5009538;28;20453;-82
2022/03/30 14:24:20;;;;;;;8.32;2.45;;;;;;;;;;5024560;28;20045;-82
2022/03/30 14:26:45;;;;;;;4.28;1.88;;;;;;;;;;5026992;28;20752;-82
2022/03/30 14:29:11;;;;;;;6.68;2.42;;;;;;;;;;5011146;28;20040;-82
2022/03/30 14:31:37;;;;;;;9.07;3.15;;;;;;;;;;5008373;28;20037;-82
2022/03/30 14:34:03;;;;;;;4.57;2.10;;;;;;;;;;5037800;28;20040;-82
2022/03/30 14:36:29;;;;;;;6.72;2.10;;;;;;;;;;5017223;28;20416;-82
2022/03/30 14:38:54;;;;;;;5.95;1.80;;;;;;;;;;5015706;28;20080;-82
2022/03/30 14:41:20;;;;;;;7.68;2.25;;;;;;;;;;5019708;28;20047;-82
2022/03/30 14:43:46;;;;;;;6.93;2.47;;;;;;;;;;5014573;28;20463;-81
2022/03/30 14:46:12;;;;;;;4.28;2.08;;;;;;;;;;5023587;28;20033;-82
2022/03/30 14:48:37;;;;;;;6.85;2.13;;;;;;;;;;5018027;28;20037;-82